Novo Horizonte, Brazil
Current Conditions -  °F | °C
As of 10:00 AM on Monday 20 Oct 2014 (Local Time) from SBSR Reporting Station
Scattered Clouds Scattered Clouds  
Wind Chill: 81°   Ceiling: Unl
Heat Index: 82°   Visibility: 6mi
Dew Point: 63°   Wind: 2mph
Humidity: 54%   Direction: 180°S
Pressure: 30.09"   Gusts: NA
Location:  21.46°S, 49.22°W
Report Text: SBSR 201300Z 18002KT 9000 FEW035 SCT090 27/17 Q1019
Loading
Personal Weather Stations






























Interactive Weather Map
Tropical Storm Tracking
New forecast layout! Learn more

10-Day Weather Forecast

Advertisements
Track Severe Weather on mobile